createdAt,value
2022-10-05T00:01:28.529Z,2.10
2022-10-05T00:04:15.802Z,2.00
2022-10-05T00:06:58.785Z,1.75
2022-10-05T00:09:28.952Z,1.80
2022-10-05T00:11:59.187Z,3.15
2022-10-05T00:14:35.367Z,1.70
2022-10-05T00:17:08.160Z,2.08
2022-10-05T00:19:45.366Z,1.80
2022-10-05T00:22:19.711Z,1.98
2022-10-05T00:24:52.653Z,1.70
2022-10-05T00:27:25.599Z,1.60
2022-10-05T00:30:00.617Z,2.08
2022-10-05T00:32:33.782Z,1.65
2022-10-05T00:35:07.159Z,1.60
2022-10-05T00:37:37.930Z,1.75
2022-10-05T00:40:25.474Z,1.60
2022-10-05T00:43:06.089Z,1.60
2022-10-05T00:45:43.531Z,1.52
2022-10-05T00:48:23.343Z,1.60
2022-10-05T00:51:10.580Z,1.95
2022-10-05T00:53:51.607Z,1.40
2022-10-05T00:56:33.589Z,1.55
2022-10-05T00:59:17.901Z,1.70
2022-10-05T01:04:38.224Z,2.45
2022-10-05T01:07:19.213Z,2.10
2022-10-05T01:09:59.607Z,2.75
2022-10-05T01:12:35.641Z,2.10
2022-10-05T01:15:10.749Z,1.88
2022-10-05T01:17:45.231Z,2.05
2022-10-05T01:20:26.532Z,2.10
2022-10-05T01:23:27.267Z,1.90
2022-10-05T01:26:19.541Z,2.10
2022-10-05T01:28:59.966Z,1.90
2022-10-05T01:31:39.237Z,2.00
2022-10-05T01:34:22.377Z,1.92
2022-10-05T01:37:01.618Z,2.15
2022-10-05T01:39:39.753Z,2.30
2022-10-05T01:42:20.542Z,1.70
2022-10-05T01:45:03.517Z,2.05
2022-10-05T01:47:40.426Z,1.92
2022-10-05T01:50:16.047Z,2.10
2022-10-05T01:52:55.799Z,1.77
2022-10-05T01:55:32.255Z,1.80
2022-10-05T01:58:12.178Z,2.28
2022-10-05T02:00:56.541Z,1.77
2022-10-05T02:03:30.830Z,2.03
2022-10-05T02:06:10.546Z,1.92
2022-10-05T02:08:47.048Z,2.30
2022-10-05T02:11:21.983Z,2.10
2022-10-05T02:13:56.086Z,1.90
2022-10-05T02:16:36.348Z,2.75
2022-10-05T02:19:16.014Z,1.67
2022-10-05T02:21:49.752Z,2.13
2022-10-05T02:24:25.247Z,1.80
2022-10-05T02:26:59.555Z,1.85
2022-10-05T02:29:33.588Z,2.17
2022-10-05T02:32:10.032Z,2.20
2022-10-05T02:34:43.653Z,1.80
2022-10-05T02:37:37.219Z,1.98
2022-10-05T02:40:22.060Z,1.58
2022-10-05T02:43:01.239Z,2.22
2022-10-05T02:45:43.732Z,1.83
2022-10-05T02:48:27.907Z,2.17
2022-10-05T02:51:04.644Z,2.03
2022-10-05T02:53:42.187Z,1.95
2022-10-05T02:56:22.218Z,2.35
2022-10-05T02:59:00.873Z,2.38
2022-10-05T03:01:38.999Z,2.13
2022-10-05T03:04:30.389Z,2.00
2022-10-05T03:07:14.069Z,1.90
2022-10-05T03:09:50.756Z,1.92
2022-10-05T03:12:34.707Z,2.08
2022-10-05T03:15:21.443Z,2.50
2022-10-05T03:18:05.000Z,1.98
2022-10-05T03:20:47.012Z,2.00
2022-10-05T03:23:28.253Z,2.58
2022-10-05T03:26:12.591Z,2.03
2022-10-05T03:31:29.208Z,1.67
2022-10-05T03:34:03.398Z,2.47
2022-10-05T03:36:44.932Z,2.25
2022-10-05T03:39:23.324Z,2.50
2022-10-05T03:42:01.078Z,2.05
2022-10-05T03:44:45.443Z,2.40
2022-10-05T03:47:25.501Z,2.08
2022-10-05T03:50:12.127Z,2.13
2022-10-05T03:52:53.745Z,2.30
2022-10-05T03:55:31.040Z,2.45
2022-10-05T03:58:06.010Z,3.08
2022-10-05T04:00:37.348Z,2.67
2022-10-05T04:03:14.111Z,2.55
2022-10-05T04:05:53.210Z,2.50
2022-10-05T04:08:38.221Z,2.88
2022-10-05T04:11:15.105Z,3.20
2022-10-05T04:13:56.812Z,2.10
2022-10-05T04:16:31.156Z,2.58
2022-10-05T04:19:07.906Z,2.45
2022-10-05T04:21:49.772Z,3.42
2022-10-05T04:24:29.141Z,2.85
2022-10-05T04:27:10.672Z,2.88
2022-10-05T04:29:47.561Z,3.17
2022-10-05T04:32:38.428Z,3.20
2022-10-05T04:35:33.299Z,3.08
2022-10-05T04:38:22.842Z,2.85
2022-10-05T04:41:11.147Z,3.13
2022-10-05T04:43:55.115Z,2.80
2022-10-05T04:46:37.531Z,3.45
2022-10-05T04:49:25.666Z,3.25
2022-10-05T04:52:03.977Z,3.35
2022-10-05T04:54:50.806Z,2.72
2022-10-05T04:57:29.687Z,3.25
2022-10-05T05:00:09.162Z,3.05
2022-10-05T05:02:53.295Z,2.45
2022-10-05T05:05:53.125Z,3.13
2022-10-05T05:08:46.621Z,3.00
2022-10-05T05:11:31.189Z,2.78
2022-10-05T05:14:31.452Z,2.70
2022-10-05T05:17:18.017Z,2.72
2022-10-05T05:19:59.817Z,2.95
2022-10-05T05:22:40.150Z,2.90
2022-10-05T05:25:30.828Z,3.03
2022-10-05T05:28:09.373Z,3.70
2022-10-05T05:30:52.181Z,3.35
2022-10-05T05:33:25.156Z,3.88
2022-10-05T05:36:11.803Z,3.97
2022-10-05T05:38:49.408Z,4.40
2022-10-05T05:41:28.547Z,4.45
2022-10-05T05:44:08.822Z,5.43
2022-10-05T05:47:02.816Z,6.55
2022-10-05T05:49:45.016Z,5.60
2022-10-05T05:52:25.593Z,5.30
2022-10-05T05:55:01.013Z,4.72
2022-10-05T05:57:37.951Z,4.57
2022-10-05T06:00:19.305Z,4.68
2022-10-05T06:02:58.622Z,4.07
2022-10-05T06:05:35.383Z,4.25
2022-10-05T06:08:15.282Z,4.43
2022-10-05T06:10:49.821Z,4.38
2022-10-05T06:13:25.460Z,5.35
2022-10-05T06:16:01.404Z,5.30
2022-10-05T06:18:36.310Z,5.22
2022-10-05T06:21:17.414Z,4.95
2022-10-05T06:23:51.782Z,4.68
2022-10-05T06:26:32.169Z,4.57
2022-10-05T06:29:08.586Z,5.57
2022-10-05T06:32:02.767Z,5.30
2022-10-05T06:34:56.590Z,5.00
2022-10-05T06:37:38.484Z,6.10
2022-10-05T06:40:26.104Z,4.85
2022-10-05T06:43:15.781Z,5.38
2022-10-05T06:46:03.644Z,5.20
2022-10-05T06:48:49.902Z,4.63
2022-10-05T06:51:32.275Z,4.85
2022-10-05T06:54:11.716Z,3.60
2022-10-05T06:56:48.646Z,4.80
2022-10-05T06:59:25.592Z,4.47
2022-10-05T07:02:08.087Z,4.32
2022-10-05T07:04:52.710Z,3.80
2022-10-05T07:07:35.548Z,3.75
2022-10-05T07:10:20.478Z,3.85
2022-10-05T07:13:08.886Z,4.00
2022-10-05T07:15:47.873Z,4.07
2022-10-05T07:18:44.427Z,4.35
2022-10-05T07:21:26.305Z,4.18
2022-10-05T07:24:07.033Z,4.55
2022-10-05T07:26:42.671Z,4.78
2022-10-05T07:29:26.616Z,5.55
2022-10-05T07:32:06.468Z,4.80
2022-10-05T07:34:48.755Z,4.95
2022-10-05T07:37:39.250Z,5.57
2022-10-05T07:40:18.655Z,5.43
2022-10-05T07:43:02.612Z,4.85
2022-10-05T07:45:40.829Z,4.95
2022-10-05T07:48:18.642Z,4.82
2022-10-05T07:51:00.688Z,5.53
2022-10-05T07:53:39.356Z,5.20
2022-10-05T07:56:22.344Z,5.25
2022-10-05T07:59:01.805Z,5.80
2022-10-05T08:01:35.584Z,5.18
2022-10-05T08:06:50.801Z,5.15
2022-10-05T08:09:33.080Z,5.75
2022-10-05T08:12:21.978Z,6.85
2022-10-05T08:14:59.062Z,5.53
2022-10-05T08:17:44.247Z,5.43
2022-10-05T08:20:33.784Z,5.57
2022-10-05T08:23:13.823Z,5.10
2022-10-05T08:25:53.265Z,5.68
2022-10-05T08:28:30.875Z,5.60
2022-10-05T08:31:09.735Z,5.80
2022-10-05T08:33:53.151Z,7.50
2022-10-05T08:36:31.163Z,5.80
2022-10-05T08:39:08.162Z,5.80
2022-10-05T08:42:13.915Z,7.22
2022-10-05T08:45:18.027Z,5.88
2022-10-05T08:48:12.662Z,5.75
2022-10-05T08:51:30.001Z,6.20
2022-10-05T08:54:44.390Z,6.07
2022-10-05T08:57:50.566Z,5.78
2022-10-05T09:00:25.544Z,5.53
2022-10-05T09:03:18.859Z,7.05
2022-10-05T09:06:20.021Z,5.85
2022-10-05T09:09:26.074Z,6.25
2022-10-05T09:12:14.410Z,6.90
2022-10-05T09:15:20.477Z,7.05
2022-10-05T09:18:21.550Z,6.53
2022-10-05T09:20:55.829Z,6.78
2022-10-05T09:23:43.024Z,7.00
2022-10-05T09:26:46.574Z,7.60
2022-10-05T09:29:49.410Z,7.15
2022-10-05T09:32:41.525Z,7.88
2022-10-05T09:35:36.042Z,7.30
2022-10-05T09:38:23.484Z,8.25
2022-10-05T09:41:26.909Z,8.40
2022-10-05T09:44:29.282Z,7.78
2022-10-05T09:47:24.121Z,7.97
2022-10-05T09:50:07.716Z,7.63
2022-10-05T09:53:07.590Z,7.97
2022-10-05T09:56:15.453Z,7.78
2022-10-05T09:59:15.809Z,8.07
2022-10-05T10:02:07.386Z,7.82
2022-10-05T10:05:05.793Z,5.90
2022-10-05T10:08:10.259Z,7.90
2022-10-05T10:11:06.751Z,7.10
2022-10-05T10:14:00.276Z,8.27
2022-10-05T10:16:49.949Z,7.20
2022-10-05T10:20:03.339Z,6.65
2022-10-05T10:22:57.576Z,7.07
2022-10-05T10:25:57.240Z,6.35
2022-10-05T10:28:46.250Z,6.18
2022-10-05T10:31:37.727Z,3.85
2022-10-05T10:34:31.666Z,3.40
2022-10-05T10:37:25.171Z,3.67
2022-10-05T10:40:20.727Z,2.90
2022-10-05T10:43:12.015Z,3.40
2022-10-05T10:45:54.555Z,3.40
2022-10-05T10:48:59.899Z,2.92
2022-10-05T10:52:04.742Z,3.08
2022-10-05T10:55:09.123Z,2.83
2022-10-05T10:57:54.066Z,2.65
2022-10-05T11:00:46.693Z,2.45
2022-10-05T11:03:52.745Z,2.97
2022-10-05T11:06:38.082Z,3.17
2022-10-05T11:09:33.886Z,3.65
2022-10-05T11:13:05.478Z,3.30
2022-10-05T11:16:08.981Z,3.40
2022-10-05T11:18:55.004Z,3.58
2022-10-05T11:21:36.879Z,3.75
2022-10-05T11:24:43.030Z,3.65
2022-10-05T11:27:55.300Z,4.65
2022-10-05T11:30:59.116Z,3.72
2022-10-05T11:33:55.480Z,3.50
2022-10-05T11:37:04.148Z,3.40
2022-10-05T11:39:49.434Z,2.58
2022-10-05T11:42:49.261Z,2.67
2022-10-05T11:45:25.938Z,3.53
2022-10-05T11:48:20.444Z,3.25
2022-10-05T11:51:16.291Z,2.17
2022-10-05T11:53:57.730Z,1.90
2022-10-05T11:56:35.599Z,2.53
2022-10-05T11:59:19.089Z,1.55
2022-10-05T12:01:56.775Z,1.75
2022-10-05T12:04:39.267Z,2.42
2022-10-05T12:07:24.225Z,2.40
2022-10-05T12:10:17.768Z,2.30
2022-10-05T12:13:01.741Z,5.60
2022-10-05T12:15:36.137Z,2.60
2022-10-05T12:18:09.235Z,2.30
2022-10-05T12:20:46.863Z,2.40
2022-10-05T12:23:25.913Z,3.50
2022-10-05T12:26:04.986Z,2.17
2022-10-05T12:28:40.780Z,2.25
2022-10-05T12:31:23.847Z,2.33
2022-10-05T12:34:01.873Z,2.13
2022-10-05T12:37:02.981Z,2.65
2022-10-05T12:39:43.767Z,2.38
2022-10-05T12:42:28.944Z,2.50
2022-10-05T12:45:29.660Z,2.90
2022-10-05T12:48:26.487Z,2.50
2022-10-05T12:51:03.699Z,2.63
2022-10-05T12:53:53.257Z,2.78
2022-10-05T12:56:43.319Z,3.35
2022-10-05T12:59:20.827Z,3.40
2022-10-05T13:01:57.528Z,2.90
2022-10-05T13:04:38.691Z,3.22
2022-10-05T13:07:31.788Z,3.05
2022-10-05T13:10:17.276Z,3.25
2022-10-05T13:12:59.268Z,3.42
2022-10-05T13:15:34.193Z,2.83
2022-10-05T13:18:18.240Z,2.75
2022-10-05T13:20:54.352Z,2.55
2022-10-05T13:23:31.523Z,3.00
2022-10-05T13:26:12.114Z,2.50
2022-10-05T13:28:51.131Z,2.70
2022-10-05T13:31:24.753Z,3.03
2022-10-05T13:36:48.581Z,2.53
2022-10-05T13:39:34.442Z,2.22
2022-10-05T13:42:13.881Z,2.40
2022-10-05T13:44:52.657Z,2.53
2022-10-05T13:47:32.062Z,2.85
2022-10-05T13:50:08.649Z,2.22
2022-10-05T13:52:49.937Z,2.10
2022-10-05T13:55:38.335Z,2.20
2022-10-05T13:58:15.466Z,2.28
2022-10-05T14:00:53.868Z,2.63
2022-10-05T14:03:35.109Z,2.28
2022-10-05T14:06:08.593Z,2.42
2022-10-05T14:11:29.759Z,2.03
2022-10-05T14:14:10.347Z,2.33
2022-10-05T14:16:51.222Z,2.03
2022-10-05T14:19:27.290Z,2.20
2022-10-05T14:22:03.094Z,2.15
2022-10-05T14:24:44.239Z,2.00
2022-10-05T14:27:26.246Z,2.10
2022-10-05T14:30:03.088Z,2.47
2022-10-05T14:32:46.129Z,2.40
2022-10-05T14:35:19.656Z,2.50
2022-10-05T14:37:57.687Z,2.70
2022-10-05T14:40:34.027Z,2.10
2022-10-05T14:43:22.527Z,2.30
2022-10-05T14:46:01.553Z,3.72
2022-10-05T14:48:45.567Z,2.30
2022-10-05T14:54:04.457Z,2.53
2022-10-05T14:56:48.450Z,2.25
2022-10-05T15:00:00.320Z,2.50
2022-10-05T15:02:56.654Z,2.45
2022-10-05T15:05:34.378Z,2.65
2022-10-05T15:08:17.624Z,2.33
2022-10-05T15:10:55.914Z,2.75
2022-10-05T15:13:31.318Z,2.70
2022-10-05T15:16:08.101Z,2.10
2022-10-05T15:18:46.116Z,2.63
2022-10-05T15:21:35.618Z,2.85
2022-10-05T15:24:09.458Z,2.92
2022-10-05T15:29:31.426Z,2.65
2022-10-05T15:32:14.878Z,2.45
2022-10-05T15:34:56.707Z,2.60
2022-10-05T15:37:39.805Z,2.95
2022-10-05T15:40:19.193Z,2.35
2022-10-05T15:42:49.334Z,2.67
2022-10-05T15:45:30.208Z,2.35
2022-10-05T15:48:03.966Z,2.50
2022-10-05T15:50:42.409Z,11.55
2022-10-05T15:53:23.606Z,3.08
2022-10-05T15:55:58.826Z,3.13
2022-10-05T15:58:44.348Z,3.20
2022-10-05T16:01:20.925Z,3.70
2022-10-05T16:04:02.474Z,3.47
2022-10-05T16:06:56.518Z,3.50
2022-10-05T16:09:47.904Z,3.42
2022-10-05T16:12:31.537Z,3.08
2022-10-05T16:15:26.677Z,3.53
2022-10-05T16:18:35.608Z,3.08
2022-10-05T16:21:20.277Z,3.60
2022-10-05T16:24:07.195Z,2.97
2022-10-05T16:26:54.396Z,3.28
2022-10-05T16:29:39.150Z,3.95
2022-10-05T16:32:15.123Z,3.92
2022-10-05T16:35:02.149Z,3.20
2022-10-05T16:37:42.076Z,2.63
2022-10-05T16:40:30.110Z,3.13
2022-10-05T16:43:16.202Z,3.20
2022-10-05T16:45:56.544Z,3.17
2022-10-05T16:48:29.044Z,3.03
2022-10-05T16:51:18.678Z,3.17
2022-10-05T16:54:01.488Z,3.20
2022-10-05T16:56:45.189Z,3.28
2022-10-05T16:59:44.531Z,3.25
2022-10-05T17:02:31.794Z,3.45
2022-10-05T17:05:15.737Z,4.03
2022-10-05T17:08:20.477Z,4.78
2022-10-05T17:11:06.711Z,4.40
2022-10-05T17:14:08.444Z,4.85
2022-10-05T17:16:54.186Z,5.20
2022-10-05T17:19:34.725Z,4.93
2022-10-05T17:22:15.143Z,5.63
2022-10-05T17:24:55.176Z,5.25
2022-10-05T17:27:35.409Z,5.13
2022-10-05T17:30:41.511Z,5.32
2022-10-05T17:33:27.726Z,5.70
2022-10-05T17:36:21.414Z,5.93
2022-10-05T17:38:55.155Z,6.00
2022-10-05T17:41:33.069Z,5.78
2022-10-05T17:44:30.923Z,6.30
2022-10-05T17:47:04.129Z,6.38
2022-10-05T17:50:10.767Z,9.77
2022-10-05T17:53:01.270Z,8.80
2022-10-05T17:56:04.651Z,8.77
2022-10-05T17:59:00.335Z,9.43
2022-10-05T18:01:38.413Z,9.80
2022-10-05T18:04:42.445Z,9.68
2022-10-05T18:07:22.870Z,11.00
2022-10-05T18:10:02.060Z,10.07
2022-10-05T18:12:45.523Z,10.25
2022-10-05T18:15:35.831Z,10.13
2022-10-05T18:18:38.912Z,10.50
2022-10-05T18:21:28.194Z,10.27
2022-10-05T18:24:28.019Z,10.65
2022-10-05T18:27:10.047Z,10.98
2022-10-05T18:30:05.780Z,9.65
2022-10-05T18:32:57.171Z,10.73
2022-10-05T18:35:37.325Z,9.88
2022-10-05T18:38:23.872Z,9.60
2022-10-05T18:41:07.015Z,9.75
2022-10-05T18:43:45.963Z,10.13
2022-10-05T18:46:37.298Z,9.52
2022-10-05T18:49:23.885Z,10.38
2022-10-05T18:52:02.073Z,9.75
2022-10-05T18:54:45.368Z,9.65
2022-10-05T18:57:55.825Z,9.18
2022-10-05T19:00:27.461Z,9.82
2022-10-05T19:03:06.399Z,9.35
2022-10-05T19:05:52.553Z,9.48
2022-10-05T19:08:33.714Z,10.13
2022-10-05T19:11:13.521Z,9.50
2022-10-05T19:13:54.969Z,10.07
2022-10-05T19:16:47.263Z,10.45
2022-10-05T19:19:44.786Z,10.45
2022-10-05T19:22:26.907Z,9.98
2022-10-05T19:25:16.189Z,10.50
2022-10-05T19:28:00.216Z,9.93
2022-10-05T19:30:47.041Z,11.02
2022-10-05T19:33:47.656Z,10.00
2022-10-05T19:36:45.536Z,9.88
2022-10-05T19:39:24.963Z,9.52
2022-10-05T19:42:10.816Z,8.70
2022-10-05T19:44:56.934Z,10.05
2022-10-05T19:47:43.534Z,9.80
2022-10-05T19:50:30.255Z,8.07
2022-10-05T19:53:08.276Z,9.23
2022-10-05T19:55:41.804Z,8.43
2022-10-05T19:58:23.604Z,8.45
2022-10-05T20:01:02.319Z,7.65
2022-10-05T20:03:38.113Z,8.20
2022-10-05T20:06:13.746Z,8.40
2022-10-05T20:08:48.463Z,8.40
2022-10-05T20:11:21.440Z,7.90
2022-10-05T20:14:21.729Z,8.57
2022-10-05T20:17:33.311Z,7.50
2022-10-05T20:20:33.175Z,8.05
2022-10-05T20:23:21.322Z,7.28
2022-10-05T20:26:11.618Z,7.72
2022-10-05T20:28:42.038Z,7.45
2022-10-05T20:31:14.685Z,6.65
2022-10-05T20:33:48.576Z,7.75
2022-10-05T20:36:22.399Z,7.25
2022-10-05T20:38:52.862Z,6.80
2022-10-05T20:41:23.019Z,6.65
2022-10-05T20:43:55.950Z,6.53
2022-10-05T20:46:27.009Z,6.63
2022-10-05T20:48:59.866Z,6.55
2022-10-05T20:51:33.015Z,6.80
2022-10-05T20:54:03.190Z,6.07
2022-10-05T20:56:33.334Z,5.82
2022-10-05T20:59:08.689Z,6.15
2022-10-05T21:01:38.916Z,6.13
2022-10-05T21:04:11.051Z,6.40
2022-10-05T21:06:43.987Z,6.03
2022-10-05T21:09:14.948Z,6.38
2022-10-05T21:11:45.418Z,6.07
2022-10-05T21:14:16.682Z,6.35
2022-10-05T21:16:49.534Z,5.57
2022-10-05T21:19:20.190Z,5.93
2022-10-05T21:21:52.971Z,5.53
2022-10-05T21:24:23.209Z,6.20
2022-10-05T21:26:57.753Z,5.32
2022-10-05T21:29:28.200Z,5.63
2022-10-05T21:31:59.516Z,5.53
2022-10-05T21:34:32.415Z,6.22
2022-10-05T21:37:05.261Z,6.28
2022-10-05T21:39:37.796Z,7.43
2022-10-05T21:42:08.112Z,6.20
2022-10-05T21:44:38.462Z,6.60
2022-10-05T21:47:09.501Z,6.50
2022-10-05T21:49:39.891Z,6.30
2022-10-05T21:52:13.849Z,6.80
2022-10-05T21:54:44.099Z,6.72
2022-10-05T21:57:15.493Z,6.57
2022-10-05T21:59:46.496Z,6.32
2022-10-05T22:02:16.592Z,6.32
2022-10-05T22:04:46.826Z,6.13
2022-10-05T22:07:22.670Z,6.88
2022-10-05T22:09:53.499Z,6.43
2022-10-05T22:12:24.680Z,6.97
2022-10-05T22:14:54.886Z,6.75
2022-10-05T22:17:28.330Z,6.15
2022-10-05T22:19:59.123Z,6.60
2022-10-05T22:22:33.296Z,6.43
2022-10-05T22:25:04.740Z,7.13
2022-10-05T22:27:36.249Z,6.10
2022-10-05T22:30:08.192Z,6.10
2022-10-05T22:32:38.439Z,6.43
2022-10-05T22:35:11.698Z,6.20
2022-10-05T22:37:50.136Z,6.55
2022-10-05T22:40:20.581Z,6.57
2022-10-05T22:42:50.687Z,6.82
2022-10-05T22:45:20.882Z,5.90
2022-10-05T22:47:53.990Z,6.43
2022-10-05T22:50:24.402Z,7.22
2022-10-05T22:52:57.116Z,6.43
2022-10-05T22:55:29.738Z,6.63
2022-10-05T22:57:59.873Z,6.38
2022-10-05T23:00:56.437Z,5.82
2022-10-05T23:03:22.746Z,5.22
2022-10-05T23:06:00.271Z,5.75
2022-10-05T23:08:33.351Z,6.97
2022-10-05T23:11:07.462Z,6.30
2022-10-05T23:16:11.693Z,5.30
2022-10-05T23:18:42.784Z,4.88
2022-10-05T23:21:17.763Z,5.50
2022-10-05T23:23:53.768Z,4.97
2022-10-05T23:26:25.905Z,5.20
2022-10-05T23:28:56.028Z,5.18
2022-10-05T23:31:29.001Z,4.63
2022-10-05T23:33:59.157Z,5.35
2022-10-05T23:36:32.367Z,5.20
2022-10-05T23:39:05.190Z,4.95
2022-10-05T23:41:35.444Z,5.82
2022-10-05T23:44:05.619Z,5.72
2022-10-05T23:46:35.850Z,4.75
2022-10-05T23:49:07.139Z,5.35
2022-10-05T23:51:40.290Z,4.75
2022-10-05T23:54:12.998Z,4.90
2022-10-05T23:56:43.172Z,5.30
2022-10-05T23:59:13.255Z,5.00
